Main page
Satellite images 15-day forecastsClimateMarine weather Cyclones Lightning AirportsFAQ Newsletter About
Weather : Europe Africa North America South America Asia Australia-Oceania Others
Languages Contact

Tel Aviv / Ben Gurion, Israel

latitude: 32-00N, longitude: 034-54E, elevation: 40 m


METAR: LLBG 181250Z 33005KT CAVOK 31/08 Q1013 NOSIG
short-TAF: out of date (10861 hours)
long-TAF: LLBG 181108Z 1812/1912 28006KT CAVOK BECMG 1815/1817 10006KT BECMG 1819/1821 14012KT BECMG 1907/1909 34015KT TX30/1812Z TN18/1903Z

Time: 16:07 (13:07 UTC)

Current weather observation

The report was made 17 minutes ago, at 12:50 UTC  
Wind 05 kt from north/northwest
Temperature 31°C
Humidity 24%
Pressure 1013 hPa
Visibility 10 km or more
no clouds below 1500 m and no cumulonimbus

Change units

Forecast

The report was made 1 hour and 55 minutes ago, at 11:12 UTC  
Forecast valid from 18 at 12 UTC to 19 at 12 UTC
Wind 06 kt from west
Visibility 10 km or more
no clouds below 1500 m and no cumulonimbus
Becoming
from 18 at 15 UTC to 18 at 17 UTC
Wind 06 kt from east
Becoming
from 18 at 19 UTC to 18 at 21 UTC
Wind 12 kt from southeast
Becoming
from 19 at 07 UTC to 19 at 09 UTC
Wind 15 kt from north/northwest
The information on this site is subject to a disclaimer
Weather : Europe Africa North America South America Asia Australia-Oceania Others
Satellite images 15-day forecastsClimateMarine weather Cyclones Lightning AirportsFAQ Languages Contact Newsletter About